X  Sluiten METAR luchtvaart weer gegevens      EHEH Eindhoven Airport
Temperatuur
15°C Temperatuur
14°C Dauwpunt
94% Vochtigheid



Wind
19 KM/U
12 MPH
5 M/S
10 KTS



200°
ZZW
Huidig weer

Regen Regen
Luchtdruk 1009.82 (hPa) - 29.82 (inHg)
Zicht 3.1 (mijl) - 5 (km)
Vliegveld
Vliegveld code EHEH

Locatie : Eindhoven Airport
Afstand: 10 (km)

Metar:
EHEH 290226Z AUTO 20010KT 170V240 5000 RA FEW005 BKN006 BKN008 SCT015CB 15/14 Q1010 YLO

Tijd: 29-05-2024 04:26 CEST